sensor_id;sensor_type;location;lat;lon;timestamp;P1;durP1;ratioP1;P2;durP2;ratioP2
23390;SDS011;11868;45.606;5.302;2023-05-24T00:01:45;8.07;;;7.00;;
23390;SDS011;11868;45.606;5.302;2023-05-24T00:04:11;8.15;;;6.93;;
23390;SDS011;11868;45.606;5.302;2023-05-24T00:06:39;11.05;;;6.93;;
23390;SDS011;11868;45.606;5.302;2023-05-24T00:09:04;8.82;;;7.43;;
23390;SDS011;11868;45.606;5.302;2023-05-24T00:11:30;7.75;;;6.80;;
23390;SDS011;11868;45.606;5.302;2023-05-24T00:13:55;8.15;;;6.63;;
23390;SDS011;11868;45.606;5.302;2023-05-24T00:16:21;9.63;;;6.43;;
23390;SDS011;11868;45.606;5.302;2023-05-24T00:18:46;10.70;;;6.50;;
23390;SDS011;11868;45.606;5.302;2023-05-24T00:21:12;9.60;;;6.32;;
23390;SDS011;11868;45.606;5.302;2023-05-24T00:23:38;7.72;;;5.85;;
23390;SDS011;11868;45.606;5.302;2023-05-24T00:26:04;8.30;;;5.65;;
23390;SDS011;11868;45.606;5.302;2023-05-24T00:28:30;8.65;;;5.90;;
23390;SDS011;11868;45.606;5.302;2023-05-24T00:30:56;12.55;;;6.13;;
23390;SDS011;11868;45.606;5.302;2023-05-24T00:33:22;10.38;;;5.82;;
23390;SDS011;11868;45.606;5.302;2023-05-24T00:35:48;8.80;;;6.30;;
23390;SDS011;11868;45.606;5.302;2023-05-24T00:38:15;7.93;;;6.47;;
23390;SDS011;11868;45.606;5.302;2023-05-24T00:40:41;7.70;;;5.95;;
23390;SDS011;11868;45.606;5.302;2023-05-24T00:43:06;6.93;;;5.72;;
23390;SDS011;11868;45.606;5.302;2023-05-24T00:45:31;9.23;;;6.25;;
23390;SDS011;11868;45.606;5.302;2023-05-24T00:47:56;7.70;;;6.07;;
23390;SDS011;11868;45.606;5.302;2023-05-24T00:50:22;7.65;;;5.78;;
23390;SDS011;11868;45.606;5.302;2023-05-24T00:52:48;6.90;;;5.75;;
23390;SDS011;11868;45.606;5.302;2023-05-24T00:55:14;7.05;;;5.85;;
23390;SDS011;11868;45.606;5.302;2023-05-24T00:57:39;10.85;;;6.50;;
23390;SDS011;11868;45.606;5.302;2023-05-24T01:00:05;8.77;;;6.07;;
23390;SDS011;11868;45.606;5.302;2023-05-24T01:02:32;9.52;;;6.00;;
23390;SDS011;11868;45.606;5.302;2023-05-24T01:04:58;8.98;;;6.47;;
23390;SDS011;11868;45.606;5.302;2023-05-24T01:10:42;8.93;;;5.95;;
23390;SDS011;11868;45.606;5.302;2023-05-24T01:13:23;7.10;;;6.10;;
23390;SDS011;11868;45.606;5.302;2023-05-24T01:18:36;9.73;;;6.05;;
23390;SDS011;11868;45.606;5.302;2023-05-24T01:29:31;8.38;;;6.80;;
23390;SDS011;11868;45.606;5.302;2023-05-24T01:31:58;8.93;;;6.15;;
23390;SDS011;11868;45.606;5.302;2023-05-24T01:34:26;7.25;;;6.03;;
23390;SDS011;11868;45.606;5.302;2023-05-24T01:36:52;7.05;;;6.00;;
23390;SDS011;11868;45.606;5.302;2023-05-24T01:39:18;10.13;;;5.82;;
23390;SDS011;11868;45.606;5.302;2023-05-24T01:44:30;16.10;;;6.63;;
23390;SDS011;11868;45.606;5.302;2023-05-24T01:47:01;7.60;;;6.18;;
23390;SDS011;11868;45.606;5.302;2023-05-24T01:49:30;7.05;;;5.97;;
23390;SDS011;11868;45.606;5.302;2023-05-24T01:52:00;11.13;;;6.43;;
23390;SDS011;11868;45.606;5.302;2023-05-24T01:54:30;7.30;;;5.85;;
23390;SDS011;11868;45.606;5.302;2023-05-24T01:56:57;7.78;;;6.50;;
23390;SDS011;11868;45.606;5.302;2023-05-24T01:59:23;7.28;;;5.78;;
23390;SDS011;11868;45.606;5.302;2023-05-24T02:01:50;6.78;;;6.05;;
23390;SDS011;11868;45.606;5.302;2023-05-24T02:04:16;9.13;;;6.13;;
23390;SDS011;11868;45.606;5.302;2023-05-24T02:06:41;9.48;;;6.05;;
23390;SDS011;11868;45.606;5.302;2023-05-24T02:09:07;8.13;;;5.80;;
23390;SDS011;11868;45.606;5.302;2023-05-24T02:11:32;7.38;;;5.80;;
23390;SDS011;11868;45.606;5.302;2023-05-24T02:13:58;7.47;;;5.65;;
23390;SDS011;11868;45.606;5.302;2023-05-24T02:16:23;9.38;;;6.60;;
23390;SDS011;11868;45.606;5.302;2023-05-24T02:18:50;6.78;;;5.55;;
23390;SDS011;11868;45.606;5.302;2023-05-24T02:21:16;10.55;;;5.68;;
23390;SDS011;11868;45.606;5.302;2023-05-24T02:23:41;6.75;;;6.00;;
23390;SDS011;11868;45.606;5.302;2023-05-24T02:26:07;9.32;;;6.38;;
23390;SDS011;11868;45.606;5.302;2023-05-24T02:28:35;7.30;;;6.05;;
23390;SDS011;11868;45.606;5.302;2023-05-24T02:31:01;10.40;;;5.53;;
23390;SDS011;11868;45.606;5.302;2023-05-24T02:33:26;8.00;;;6.15;;
23390;SDS011;11868;45.606;5.302;2023-05-24T02:35:53;8.82;;;6.40;;
23390;SDS011;11868;45.606;5.302;2023-05-24T02:38:19;8.90;;;6.55;;
23390;SDS011;11868;45.606;5.302;2023-05-24T02:40:45;8.20;;;6.05;;
23390;SDS011;11868;45.606;5.302;2023-05-24T02:43:10;8.55;;;6.50;;
23390;SDS011;11868;45.606;5.302;2023-05-24T02:45:36;11.77;;;6.85;;
23390;SDS011;11868;45.606;5.302;2023-05-24T02:48:01;9.60;;;6.25;;
23390;SDS011;11868;45.606;5.302;2023-05-24T02:50:27;8.23;;;5.93;;
23390;SDS011;11868;45.606;5.302;2023-05-24T02:52:52;9.60;;;6.43;;
23390;SDS011;11868;45.606;5.302;2023-05-24T02:55:18;9.32;;;6.47;;
23390;SDS011;11868;45.606;5.302;2023-05-24T02:57:43;8.15;;;6.80;;
23390;SDS011;11868;45.606;5.302;2023-05-24T03:00:09;9.93;;;6.97;;
23390;SDS011;11868;45.606;5.302;2023-05-24T03:02:35;10.38;;;6.97;;
23390;SDS011;11868;45.606;5.302;2023-05-24T03:05:02;8.45;;;6.75;;
23390;SDS011;11868;45.606;5.302;2023-05-24T03:07:28;10.05;;;7.57;;
23390;SDS011;11868;45.606;5.302;2023-05-24T03:09:53;11.27;;;6.63;;
23390;SDS011;11868;45.606;5.302;2023-05-24T03:12:19;10.50;;;7.25;;
23390;SDS011;11868;45.606;5.302;2023-05-24T03:14:44;10.88;;;6.70;;
23390;SDS011;11868;45.606;5.302;2023-05-24T03:17:09;11.02;;;7.20;;
23390;SDS011;11868;45.606;5.302;2023-05-24T03:19:35;7.57;;;6.63;;
23390;SDS011;11868;45.606;5.302;2023-05-24T03:22:01;13.85;;;7.65;;
23390;SDS011;11868;45.606;5.302;2023-05-24T03:24:27;8.23;;;7.28;;
23390;SDS011;11868;45.606;5.302;2023-05-24T03:26:52;12.25;;;7.75;;
23390;SDS011;11868;45.606;5.302;2023-05-24T03:29:18;11.48;;;7.65;;
23390;SDS011;11868;45.606;5.302;2023-05-24T03:31:43;11.70;;;7.80;;
23390;SDS011;11868;45.606;5.302;2023-05-24T03:34:09;9.88;;;8.05;;
23390;SDS011;11868;45.606;5.302;2023-05-24T03:36:34;10.50;;;7.75;;
23390;SDS011;11868;45.606;5.302;2023-05-24T03:39:00;10.05;;;7.88;;
23390;SDS011;11868;45.606;5.302;2023-05-24T03:41:28;8.88;;;7.65;;
23390;SDS011;11868;45.606;5.302;2023-05-24T03:43:53;12.93;;;8.57;;
23390;SDS011;11868;45.606;5.302;2023-05-24T03:46:19;14.60;;;8.00;;
23390;SDS011;11868;45.606;5.302;2023-05-24T03:48:44;10.25;;;8.02;;
23390;SDS011;11868;45.606;5.302;2023-05-24T03:51:09;12.73;;;8.65;;
23390;SDS011;11868;45.606;5.302;2023-05-24T03:53:35;12.15;;;8.35;;
23390;SDS011;11868;45.606;5.302;2023-05-24T03:56:00;10.07;;;8.00;;
23390;SDS011;11868;45.606;5.302;2023-05-24T03:58:26;11.38;;;8.50;;
23390;SDS011;11868;45.606;5.302;2023-05-24T04:00:51;11.88;;;8.52;;
23390;SDS011;11868;45.606;5.302;2023-05-24T04:03:16;12.20;;;8.07;;
23390;SDS011;11868;45.606;5.302;2023-05-24T04:05:44;11.45;;;8.35;;
23390;SDS011;11868;45.606;5.302;2023-05-24T04:08:09;10.00;;;8.35;;
23390;SDS011;11868;45.606;5.302;2023-05-24T04:10:36;12.68;;;8.30;;
23390;SDS011;11868;45.606;5.302;2023-05-24T04:13:01;14.40;;;8.77;;
23390;SDS011;11868;45.606;5.302;2023-05-24T04:15:27;11.13;;;8.48;;
23390;SDS011;11868;45.606;5.302;2023-05-24T04:17:53;11.52;;;8.63;;
23390;SDS011;11868;45.606;5.302;2023-05-24T04:20:19;9.52;;;8.27;;
23390;SDS011;11868;45.606;5.302;2023-05-24T04:22:49;12.13;;;8.02;;
23390;SDS011;11868;45.606;5.302;2023-05-24T04:25:14;13.85;;;8.75;;
23390;SDS011;11868;45.606;5.302;2023-05-24T04:27:39;14.88;;;9.25;;
23390;SDS011;11868;45.606;5.302;2023-05-24T04:30:05;11.93;;;8.48;;
23390;SDS011;11868;45.606;5.302;2023-05-24T04:32:33;14.85;;;9.20;;
23390;SDS011;11868;45.606;5.302;2023-05-24T04:34:59;12.00;;;8.57;;
23390;SDS011;11868;45.606;5.302;2023-05-24T04:37:26;10.95;;;8.38;;
23390;SDS011;11868;45.606;5.302;2023-05-24T04:39:53;13.50;;;8.50;;
23390;SDS011;11868;45.606;5.302;2023-05-24T04:42:19;11.52;;;8.00;;
23390;SDS011;11868;45.606;5.302;2023-05-24T04:44:44;14.52;;;9.05;;
23390;SDS011;11868;45.606;5.302;2023-05-24T04:47:09;11.55;;;9.27;;
23390;SDS011;11868;45.606;5.302;2023-05-24T04:49:36;14.80;;;8.32;;
23390;SDS011;11868;45.606;5.302;2023-05-24T04:52:02;14.30;;;9.63;;
23390;SDS011;11868;45.606;5.302;2023-05-24T04:54:28;14.85;;;9.07;;
23390;SDS011;11868;45.606;5.302;2023-05-24T04:56:53;12.60;;;8.70;;
23390;SDS011;11868;45.606;5.302;2023-05-24T04:59:19;12.13;;;10.00;;
23390;SDS011;11868;45.606;5.302;2023-05-24T05:01:44;13.20;;;9.18;;
23390;SDS011;11868;45.606;5.302;2023-05-24T05:04:09;16.52;;;10.05;;
23390;SDS011;11868;45.606;5.302;2023-05-24T05:06:35;12.80;;;8.80;;
23390;SDS011;11868;45.606;5.302;2023-05-24T05:09:04;19.15;;;9.63;;
23390;SDS011;11868;45.606;5.302;2023-05-24T05:11:37;10.60;;;9.32;;
23390;SDS011;11868;45.606;5.302;2023-05-24T05:14:03;13.15;;;9.45;;
23390;SDS011;11868;45.606;5.302;2023-05-24T05:16:29;16.08;;;9.10;;
23390;SDS011;11868;45.606;5.302;2023-05-24T05:18:55;17.83;;;10.38;;
23390;SDS011;11868;45.606;5.302;2023-05-24T05:21:21;12.55;;;9.73;;
23390;SDS011;11868;45.606;5.302;2023-05-24T05:23:46;13.00;;;9.05;;
23390;SDS011;11868;45.606;5.302;2023-05-24T05:26:12;10.60;;;9.50;;
23390;SDS011;11868;45.606;5.302;2023-05-24T05:28:38;13.02;;;9.38;;
23390;SDS011;11868;45.606;5.302;2023-05-24T05:31:04;11.73;;;9.52;;
23390;SDS011;11868;45.606;5.302;2023-05-24T05:33:30;15.48;;;9.98;;
23390;SDS011;11868;45.606;5.302;2023-05-24T05:35:56;12.60;;;9.63;;
23390;SDS011;11868;45.606;5.302;2023-05-24T05:38:21;13.27;;;9.80;;
23390;SDS011;11868;45.606;5.302;2023-05-24T05:40:46;13.15;;;9.45;;
23390;SDS011;11868;45.606;5.302;2023-05-24T05:43:12;14.73;;;9.45;;
23390;SDS011;11868;45.606;5.302;2023-05-24T05:45:37;15.15;;;10.68;;
23390;SDS011;11868;45.606;5.302;2023-05-24T05:48:02;13.57;;;9.52;;
23390;SDS011;11868;45.606;5.302;2023-05-24T05:50:28;22.83;;;8.68;;
23390;SDS011;11868;45.606;5.302;2023-05-24T05:52:53;13.60;;;9.60;;
23390;SDS011;11868;45.606;5.302;2023-05-24T05:55:19;12.77;;;10.23;;
23390;SDS011;11868;45.606;5.302;2023-05-24T05:57:44;18.50;;;10.32;;
23390;SDS011;11868;45.606;5.302;2023-05-24T06:00:10;12.77;;;9.35;;
23390;SDS011;11868;45.606;5.302;2023-05-24T06:02:35;17.60;;;10.18;;
23390;SDS011;11868;45.606;5.302;2023-05-24T06:05:01;13.05;;;9.73;;
23390;SDS011;11868;45.606;5.302;2023-05-24T06:07:27;17.08;;;10.13;;
23390;SDS011;11868;45.606;5.302;2023-05-24T06:09:52;16.38;;;10.40;;
23390;SDS011;11868;45.606;5.302;2023-05-24T06:12:18;15.07;;;9.80;;
23390;SDS011;11868;45.606;5.302;2023-05-24T06:14:43;14.57;;;9.55;;
23390;SDS011;11868;45.606;5.302;2023-05-24T06:17:08;15.43;;;11.10;;
23390;SDS011;11868;45.606;5.302;2023-05-24T06:19:35;15.02;;;11.07;;
23390;SDS011;11868;45.606;5.302;2023-05-24T06:22:00;16.17;;;10.70;;
23390;SDS011;11868;45.606;5.302;2023-05-24T06:24:26;16.15;;;10.73;;
23390;SDS011;11868;45.606;5.302;2023-05-24T06:26:52;15.68;;;11.60;;
23390;SDS011;11868;45.606;5.302;2023-05-24T06:29:18;17.27;;;10.65;;
23390;SDS011;11868;45.606;5.302;2023-05-24T06:31:45;15.90;;;10.30;;
23390;SDS011;11868;45.606;5.302;2023-05-24T06:34:11;18.48;;;10.88;;
23390;SDS011;11868;45.606;5.302;2023-05-24T06:36:45;16.08;;;11.68;;
23390;SDS011;11868;45.606;5.302;2023-05-24T06:39:12;17.75;;;11.38;;
23390;SDS011;11868;45.606;5.302;2023-05-24T06:41:39;16.83;;;11.73;;
23390;SDS011;11868;45.606;5.302;2023-05-24T06:44:05;18.88;;;11.65;;
23390;SDS011;11868;45.606;5.302;2023-05-24T06:46:30;18.83;;;11.80;;
23390;SDS011;11868;45.606;5.302;2023-05-24T06:48:56;16.15;;;11.68;;
23390;SDS011;11868;45.606;5.302;2023-05-24T06:51:22;16.55;;;11.52;;
23390;SDS011;11868;45.606;5.302;2023-05-24T06:53:47;16.27;;;11.20;;
23390;SDS011;11868;45.606;5.302;2023-05-24T06:56:12;14.85;;;11.35;;
23390;SDS011;11868;45.606;5.302;2023-05-24T06:58:39;16.90;;;11.73;;
23390;SDS011;11868;45.606;5.302;2023-05-24T07:01:04;20.10;;;11.77;;
23390;SDS011;11868;45.606;5.302;2023-05-24T07:03:30;17.23;;;11.85;;
23390;SDS011;11868;45.606;5.302;2023-05-24T07:05:56;19.48;;;12.10;;
23390;SDS011;11868;45.606;5.302;2023-05-24T07:08:22;16.60;;;12.38;;
23390;SDS011;11868;45.606;5.302;2023-05-24T07:10:48;18.85;;;11.55;;
23390;SDS011;11868;45.606;5.302;2023-05-24T07:13:13;18.13;;;12.00;;
23390;SDS011;11868;45.606;5.302;2023-05-24T07:15:40;16.05;;;11.63;;
23390;SDS011;11868;45.606;5.302;2023-05-24T07:18:06;17.02;;;12.20;;
23390;SDS011;11868;45.606;5.302;2023-05-24T07:20:32;20.75;;;12.60;;
23390;SDS011;11868;45.606;5.302;2023-05-24T07:22:57;18.98;;;12.10;;
23390;SDS011;11868;45.606;5.302;2023-05-24T07:25:24;20.00;;;12.90;;
23390;SDS011;11868;45.606;5.302;2023-05-24T07:27:49;18.55;;;12.82;;
23390;SDS011;11868;45.606;5.302;2023-05-24T07:30:15;19.38;;;13.45;;
23390;SDS011;11868;45.606;5.302;2023-05-24T07:32:41;19.88;;;12.38;;
23390;SDS011;11868;45.606;5.302;2023-05-24T07:35:06;17.10;;;12.45;;
23390;SDS011;11868;45.606;5.302;2023-05-24T07:37:32;20.13;;;12.93;;
23390;SDS011;11868;45.606;5.302;2023-05-24T07:39:57;21.73;;;13.02;;
23390;SDS011;11868;45.606;5.302;2023-05-24T07:42:23;18.27;;;12.52;;
23390;SDS011;11868;45.606;5.302;2023-05-24T07:44:48;22.70;;;13.13;;
23390;SDS011;11868;45.606;5.302;2023-05-24T07:47:13;21.88;;;12.85;;
23390;SDS011;11868;45.606;5.302;2023-05-24T07:49:39;18.55;;;12.45;;
23390;SDS011;11868;45.606;5.302;2023-05-24T07:52:05;16.52;;;12.38;;
23390;SDS011;11868;45.606;5.302;2023-05-24T07:54:30;20.10;;;13.10;;
23390;SDS011;11868;45.606;5.302;2023-05-24T07:56:56;23.40;;;13.23;;
23390;SDS011;11868;45.606;5.302;2023-05-24T07:59:21;19.10;;;13.18;;
23390;SDS011;11868;45.606;5.302;2023-05-24T08:01:47;20.45;;;12.52;;
23390;SDS011;11868;45.606;5.302;2023-05-24T08:04:13;23.92;;;13.65;;
23390;SDS011;11868;45.606;5.302;2023-05-24T08:06:38;20.25;;;13.30;;
23390;SDS011;11868;45.606;5.302;2023-05-24T08:09:04;18.00;;;13.20;;
23390;SDS011;11868;45.606;5.302;2023-05-24T08:11:29;19.83;;;12.60;;
23390;SDS011;11868;45.606;5.302;2023-05-24T08:13:55;18.60;;;13.35;;
23390;SDS011;11868;45.606;5.302;2023-05-24T08:16:20;18.40;;;13.40;;
23390;SDS011;11868;45.606;5.302;2023-05-24T08:18:46;23.83;;;13.93;;
23390;SDS011;11868;45.606;5.302;2023-05-24T08:21:11;19.30;;;13.27;;
23390;SDS011;11868;45.606;5.302;2023-05-24T08:23:36;19.30;;;13.13;;
23390;SDS011;11868;45.606;5.302;2023-05-24T08:26:02;18.08;;;13.50;;
23390;SDS011;11868;45.606;5.302;2023-05-24T08:28:28;21.38;;;13.98;;
23390;SDS011;11868;45.606;5.302;2023-05-24T08:30:53;19.25;;;12.98;;
23390;SDS011;11868;45.606;5.302;2023-05-24T08:33:19;18.08;;;12.40;;
23390;SDS011;11868;45.606;5.302;2023-05-24T08:35:47;18.08;;;12.98;;
23390;SDS011;11868;45.606;5.302;2023-05-24T08:38:13;18.88;;;12.35;;
23390;SDS011;11868;45.606;5.302;2023-05-24T08:40:38;17.05;;;12.57;;
23390;SDS011;11868;45.606;5.302;2023-05-24T08:43:03;16.83;;;11.40;;
23390;SDS011;11868;45.606;5.302;2023-05-24T08:45:35;17.85;;;12.30;;
23390;SDS011;11868;45.606;5.302;2023-05-24T08:48:01;17.20;;;12.85;;
23390;SDS011;11868;45.606;5.302;2023-05-24T08:50:27;19.00;;;11.25;;
23390;SDS011;11868;45.606;5.302;2023-05-24T08:52:54;19.02;;;11.90;;
23390;SDS011;11868;45.606;5.302;2023-05-24T08:55:20;21.08;;;11.80;;
23390;SDS011;11868;45.606;5.302;2023-05-24T08:57:45;18.98;;;11.70;;
23390;SDS011;11868;45.606;5.302;2023-05-24T09:00:11;19.13;;;12.02;;
23390;SDS011;11868;45.606;5.302;2023-05-24T09:02:38;18.98;;;11.20;;
23390;SDS011;11868;45.606;5.302;2023-05-24T09:05:04;17.38;;;12.15;;
23390;SDS011;11868;45.606;5.302;2023-05-24T09:07:32;16.25;;;12.32;;
23390;SDS011;11868;45.606;5.302;2023-05-24T09:10:04;17.95;;;13.48;;
23390;SDS011;11868;45.606;5.302;2023-05-24T09:12:30;18.40;;;13.02;;
23390;SDS011;11868;45.606;5.302;2023-05-24T09:14:57;18.25;;;13.13;;
23390;SDS011;11868;45.606;5.302;2023-05-24T09:17:23;16.52;;;12.93;;
23390;SDS011;11868;45.606;5.302;2023-05-24T09:19:49;17.90;;;13.15;;
23390;SDS011;11868;45.606;5.302;2023-05-24T09:22:15;19.45;;;13.45;;
23390;SDS011;11868;45.606;5.302;2023-05-24T09:24:48;20.08;;;13.02;;
23390;SDS011;11868;45.606;5.302;2023-05-24T09:27:14;20.85;;;13.63;;
23390;SDS011;11868;45.606;5.302;2023-05-24T09:29:41;24.92;;;13.82;;
23390;SDS011;11868;45.606;5.302;2023-05-24T09:32:07;17.27;;;12.45;;
23390;SDS011;11868;45.606;5.302;2023-05-24T09:34:37;21.70;;;13.95;;
23390;SDS011;11868;45.606;5.302;2023-05-24T09:37:03;20.20;;;12.40;;
23390;SDS011;11868;45.606;5.302;2023-05-24T09:39:29;18.83;;;12.60;;
23390;SDS011;11868;45.606;5.302;2023-05-24T09:41:56;17.48;;;12.68;;
23390;SDS011;11868;45.606;5.302;2023-05-24T09:44:25;16.98;;;13.30;;
23390;SDS011;11868;45.606;5.302;2023-05-24T09:46:52;17.83;;;12.52;;
23390;SDS011;11868;45.606;5.302;2023-05-24T09:49:19;20.48;;;13.13;;
23390;SDS011;11868;45.606;5.302;2023-05-24T09:51:45;17.67;;;12.73;;
23390;SDS011;11868;45.606;5.302;2023-05-24T09:54:11;19.60;;;11.77;;
23390;SDS011;11868;45.606;5.302;2023-05-24T09:56:36;14.27;;;11.80;;
23390;SDS011;11868;45.606;5.302;2023-05-24T09:59:04;16.45;;;12.70;;
23390;SDS011;11868;45.606;5.302;2023-05-24T10:01:32;19.77;;;12.23;;
23390;SDS011;11868;45.606;5.302;2023-05-24T10:03:58;16.85;;;12.73;;
23390;SDS011;11868;45.606;5.302;2023-05-24T10:06:27;16.05;;;12.68;;
23390;SDS011;11868;45.606;5.302;2023-05-24T10:08:53;17.67;;;11.77;;
23390;SDS011;11868;45.606;5.302;2023-05-24T10:11:19;19.52;;;12.82;;
23390;SDS011;11868;45.606;5.302;2023-05-24T10:13:46;14.85;;;12.35;;
23390;SDS011;11868;45.606;5.302;2023-05-24T10:16:12;14.77;;;11.38;;
23390;SDS011;11868;45.606;5.302;2023-05-24T10:18:37;17.33;;;12.07;;
23390;SDS011;11868;45.606;5.302;2023-05-24T10:21:04;18.65;;;12.77;;
23390;SDS011;11868;45.606;5.302;2023-05-24T10:26:07;18.13;;;13.13;;
23390;SDS011;11868;45.606;5.302;2023-05-24T10:28:37;16.45;;;12.55;;
23390;SDS011;11868;45.606;5.302;2023-05-24T10:33:31;18.60;;;12.88;;
23390;SDS011;11868;45.606;5.302;2023-05-24T10:35:59;23.80;;;14.23;;
23390;SDS011;11868;45.606;5.302;2023-05-24T10:38:25;22.73;;;14.70;;
23390;SDS011;11868;45.606;5.302;2023-05-24T10:40:50;20.20;;;14.80;;
23390;SDS011;11868;45.606;5.302;2023-05-24T10:43:16;20.05;;;14.50;;
23390;SDS011;11868;45.606;5.302;2023-05-24T10:45:42;15.75;;;12.52;;
23390;SDS011;11868;45.606;5.302;2023-05-24T10:50:38;18.50;;;12.80;;
23390;SDS011;11868;45.606;5.302;2023-05-24T10:53:10;19.65;;;13.05;;
23390;SDS011;11868;45.606;5.302;2023-05-24T10:55:55;16.23;;;12.10;;
23390;SDS011;11868;45.606;5.302;2023-05-24T10:58:44;22.88;;;12.68;;
23390;SDS011;11868;45.606;5.302;2023-05-24T11:01:31;15.90;;;12.15;;
23390;SDS011;11868;45.606;5.302;2023-05-24T11:04:10;17.65;;;12.32;;
23390;SDS011;11868;45.606;5.302;2023-05-24T11:06:46;17.13;;;12.25;;
23390;SDS011;11868;45.606;5.302;2023-05-24T11:09:14;16.88;;;12.52;;
23390;SDS011;11868;45.606;5.302;2023-05-24T11:11:42;20.05;;;12.35;;
23390;SDS011;11868;45.606;5.302;2023-05-24T11:14:09;19.35;;;11.50;;
23390;SDS011;11868;45.606;5.302;2023-05-24T11:16:38;18.58;;;12.27;;
23390;SDS011;11868;45.606;5.302;2023-05-24T11:19:10;15.25;;;11.90;;
23390;SDS011;11868;45.606;5.302;2023-05-24T11:21:59;18.38;;;12.05;;
23390;SDS011;11868;45.606;5.302;2023-05-24T11:24:26;15.45;;;12.18;;
23390;SDS011;11868;45.606;5.302;2023-05-24T11:26:51;15.20;;;11.88;;
23390;SDS011;11868;45.606;5.302;2023-05-24T11:29:18;15.98;;;11.93;;
23390;SDS011;11868;45.606;5.302;2023-05-24T11:31:49;15.88;;;10.90;;
23390;SDS011;11868;45.606;5.302;2023-05-24T11:34:16;17.38;;;13.35;;
23390;SDS011;11868;45.606;5.302;2023-05-24T11:36:42;16.45;;;12.57;;
23390;SDS011;11868;45.606;5.302;2023-05-24T11:39:08;16.38;;;12.35;;
23390;SDS011;11868;45.606;5.302;2023-05-24T11:41:37;15.93;;;12.82;;
23390;SDS011;11868;45.606;5.302;2023-05-24T11:44:03;17.27;;;12.95;;
23390;SDS011;11868;45.606;5.302;2023-05-24T11:46:30;18.77;;;13.02;;
23390;SDS011;11868;45.606;5.302;2023-05-24T11:48:56;16.65;;;12.48;;
23390;SDS011;11868;45.606;5.302;2023-05-24T11:51:40;17.33;;;12.35;;
23390;SDS011;11868;45.606;5.302;2023-05-24T11:54:06;18.67;;;11.43;;
23390;SDS011;11868;45.606;5.302;2023-05-24T11:56:31;16.92;;;11.95;;
23390;SDS011;11868;45.606;5.302;2023-05-24T11:59:16;19.63;;;13.30;;
23390;SDS011;11868;45.606;5.302;2023-05-24T12:01:45;18.20;;;12.40;;
23390;SDS011;11868;45.606;5.302;2023-05-24T12:04:10;15.43;;;12.05;;
23390;SDS011;11868;45.606;5.302;2023-05-24T12:06:42;16.77;;;12.18;;
23390;SDS011;11868;45.606;5.302;2023-05-24T12:09:08;14.93;;;11.98;;
23390;SDS011;11868;45.606;5.302;2023-05-24T12:11:37;17.15;;;11.60;;
23390;SDS011;11868;45.606;5.302;2023-05-24T12:14:04;16.27;;;11.38;;
23390;SDS011;11868;45.606;5.302;2023-05-24T12:16:29;13.98;;;11.65;;
23390;SDS011;11868;45.606;5.302;2023-05-24T12:18:57;15.13;;;10.82;;
23390;SDS011;11868;45.606;5.302;2023-05-24T12:21:22;13.90;;;10.43;;
23390;SDS011;11868;45.606;5.302;2023-05-24T12:23:48;18.80;;;11.45;;
23390;SDS011;11868;45.606;5.302;2023-05-24T12:26:13;16.92;;;10.50;;
23390;SDS011;11868;45.606;5.302;2023-05-24T12:28:42;15.93;;;11.05;;
23390;SDS011;11868;45.606;5.302;2023-05-24T12:31:08;13.98;;;10.95;;
23390;SDS011;11868;45.606;5.302;2023-05-24T12:33:33;16.45;;;11.23;;
23390;SDS011;11868;45.606;5.302;2023-05-24T12:35:59;16.00;;;11.02;;
23390;SDS011;11868;45.606;5.302;2023-05-24T12:38:25;12.68;;;9.82;;
23390;SDS011;11868;45.606;5.302;2023-05-24T12:40:51;13.18;;;11.27;;
23390;SDS011;11868;45.606;5.302;2023-05-24T12:43:18;20.67;;;11.00;;
23390;SDS011;11868;45.606;5.302;2023-05-24T12:45:44;13.85;;;10.00;;
23390;SDS011;11868;45.606;5.302;2023-05-24T12:48:09;14.30;;;10.55;;
23390;SDS011;11868;45.606;5.302;2023-05-24T12:50:34;15.57;;;9.98;;
23390;SDS011;11868;45.606;5.302;2023-05-24T12:53:00;12.85;;;9.50;;
23390;SDS011;11868;45.606;5.302;2023-05-24T12:55:26;11.63;;;9.75;;
23390;SDS011;11868;45.606;5.302;2023-05-24T12:57:52;15.32;;;10.68;;
23390;SDS011;11868;45.606;5.302;2023-05-24T13:00:22;13.30;;;9.27;;
23390;SDS011;11868;45.606;5.302;2023-05-24T13:02:52;16.58;;;9.90;;
23390;SDS011;11868;45.606;5.302;2023-05-24T13:05:20;14.10;;;9.80;;
23390;SDS011;11868;45.606;5.302;2023-05-24T13:07:46;11.63;;;9.88;;
23390;SDS011;11868;45.606;5.302;2023-05-24T13:10:12;13.20;;;10.02;;
23390;SDS011;11868;45.606;5.302;2023-05-24T13:12:38;14.75;;;10.15;;
23390;SDS011;11868;45.606;5.302;2023-05-24T13:15:04;14.45;;;10.35;;
23390;SDS011;11868;45.606;5.302;2023-05-24T13:17:30;11.57;;;9.40;;
23390;SDS011;11868;45.606;5.302;2023-05-24T13:19:57;11.27;;;9.73;;
23390;SDS011;11868;45.606;5.302;2023-05-24T13:22:23;15.18;;;10.07;;
23390;SDS011;11868;45.606;5.302;2023-05-24T13:24:48;11.65;;;8.93;;
23390;SDS011;11868;45.606;5.302;2023-05-24T13:27:14;11.95;;;8.73;;
23390;SDS011;11868;45.606;5.302;2023-05-24T13:29:39;16.13;;;9.10;;
23390;SDS011;11868;45.606;5.302;2023-05-24T13:32:04;14.13;;;9.30;;
23390;SDS011;11868;45.606;5.302;2023-05-24T13:34:30;15.40;;;8.95;;
23390;SDS011;11868;45.606;5.302;2023-05-24T13:36:56;15.68;;;9.55;;
23390;SDS011;11868;45.606;5.302;2023-05-24T13:39:23;13.35;;;9.18;;
23390;SDS011;11868;45.606;5.302;2023-05-24T13:41:49;12.18;;;8.93;;
23390;SDS011;11868;45.606;5.302;2023-05-24T13:44:14;16.17;;;8.75;;
23390;SDS011;11868;45.606;5.302;2023-05-24T13:46:40;10.70;;;8.38;;
23390;SDS011;11868;45.606;5.302;2023-05-24T13:49:07;13.52;;;8.52;;
23390;SDS011;11868;45.606;5.302;2023-05-24T13:51:36;11.18;;;8.85;;
23390;SDS011;11868;45.606;5.302;2023-05-24T13:54:02;12.73;;;8.90;;
23390;SDS011;11868;45.606;5.302;2023-05-24T13:56:28;12.25;;;8.45;;
23390;SDS011;11868;45.606;5.302;2023-05-24T13:58:57;12.80;;;8.68;;
23390;SDS011;11868;45.606;5.302;2023-05-24T14:01:23;11.80;;;8.48;;
23390;SDS011;11868;45.606;5.302;2023-05-24T14:03:49;12.20;;;8.18;;
23390;SDS011;11868;45.606;5.302;2023-05-24T14:06:14;16.40;;;8.25;;
23390;SDS011;11868;45.606;5.302;2023-05-24T14:08:40;17.38;;;8.68;;
23390;SDS011;11868;45.606;5.302;2023-05-24T14:11:06;12.95;;;7.97;;
23390;SDS011;11868;45.606;5.302;2023-05-24T14:13:31;12.35;;;7.90;;
23390;SDS011;11868;45.606;5.302;2023-05-24T14:15:57;13.55;;;8.95;;
23390;SDS011;11868;45.606;5.302;2023-05-24T14:18:22;15.25;;;7.82;;
23390;SDS011;11868;45.606;5.302;2023-05-24T14:20:47;13.48;;;7.90;;
23390;SDS011;11868;45.606;5.302;2023-05-24T14:23:13;10.52;;;7.72;;
23390;SDS011;11868;45.606;5.302;2023-05-24T14:25:38;13.77;;;7.80;;
23390;SDS011;11868;45.606;5.302;2023-05-24T14:28:05;10.73;;;8.65;;
23390;SDS011;11868;45.606;5.302;2023-05-24T14:30:32;9.63;;;8.18;;
23390;SDS011;11868;45.606;5.302;2023-05-24T14:32:57;15.05;;;8.50;;
23390;SDS011;11868;45.606;5.302;2023-05-24T14:35:25;10.25;;;7.95;;
23390;SDS011;11868;45.606;5.302;2023-05-24T14:37:50;12.20;;;8.38;;
23390;SDS011;11868;45.606;5.302;2023-05-24T14:40:16;12.32;;;7.78;;
23390;SDS011;11868;45.606;5.302;2023-05-24T14:42:41;15.80;;;8.50;;
23390;SDS011;11868;45.606;5.302;2023-05-24T14:45:06;11.30;;;7.35;;
23390;SDS011;11868;45.606;5.302;2023-05-24T14:47:32;12.65;;;7.82;;
23390;SDS011;11868;45.606;5.302;2023-05-24T14:49:58;10.25;;;7.35;;
23390;SDS011;11868;45.606;5.302;2023-05-24T14:52:23;13.15;;;7.55;;